createdAt,value
2017-07-14T00:00:47.183Z,0
2017-07-14T00:01:57.710Z,0
2017-07-14T00:03:07.983Z,0
2017-07-14T00:04:18.252Z,0
2017-07-14T00:05:28.539Z,0
2017-07-14T00:06:38.799Z,0
2017-07-14T00:07:49.317Z,0
2017-07-14T00:08:59.275Z,0
2017-07-14T00:10:09.541Z,0
2017-07-14T00:11:19.790Z,0
2017-07-14T00:12:30.053Z,0
2017-07-14T00:13:40.576Z,0
2017-07-14T00:14:50.522Z,0
2017-07-14T00:16:00.787Z,0
2017-07-14T00:17:10.733Z,0
2017-07-14T00:18:20.993Z,0
2017-07-14T00:19:31.556Z,0
2017-07-14T00:20:41.829Z,0
2017-07-14T00:21:52.102Z,0
2017-07-14T00:23:02.364Z,0
2017-07-14T00:24:12.308Z,0
2017-07-14T00:25:22.558Z,0
2017-07-14T00:26:32.833Z,0
2017-07-14T00:27:43.098Z,0
2017-07-14T00:28:53.349Z,0
2017-07-14T00:30:03.295Z,0
2017-07-14T00:31:13.505Z,0
2017-07-14T00:32:23.772Z,0
2017-07-14T00:33:34.045Z,0
2017-07-14T00:34:44.304Z,0
2017-07-14T00:35:54.584Z,0
2017-07-14T00:37:05.106Z,0
2017-07-14T00:38:15.368Z,0
2017-07-14T00:39:25.323Z,0
2017-07-14T00:40:35.269Z,0
2017-07-14T00:41:45.541Z,0
2017-07-14T00:42:56.309Z,0
2017-07-14T00:44:06.594Z,0
2017-07-14T00:45:16.852Z,0
2017-07-14T00:46:27.107Z,0
2017-07-14T00:47:37.361Z,0
2017-07-14T00:48:47.258Z,0
2017-07-14T00:49:57.523Z,0
2017-07-14T00:51:07.764Z,0
2017-07-14T00:52:17.722Z,0
2017-07-14T00:53:27.991Z,0
2017-07-14T00:54:38.200Z,0
2017-07-14T00:55:48.455Z,0
2017-07-14T00:56:58.711Z,0
2017-07-14T00:58:08.679Z,0
2017-07-14T00:59:18.951Z,0
2017-07-14T01:00:29.467Z,0
2017-07-14T01:01:39.728Z,0
2017-07-14T01:02:49.349Z,0
2017-07-14T01:03:59.315Z,0
2017-07-14T01:05:09.274Z,0
2017-07-14T01:06:19.872Z,0
2017-07-14T01:07:30.147Z,0
2017-07-14T01:08:39.797Z,0
2017-07-14T01:09:50.050Z,0
2017-07-14T01:11:00.325Z,0
2017-07-14T01:12:10.847Z,0
2017-07-14T01:13:21.120Z,0
2017-07-14T01:14:31.367Z,0
2017-07-14T01:15:41.317Z,0
2017-07-14T01:16:51.282Z,0
2017-07-14T01:18:01.799Z,0
2017-07-14T01:19:12.075Z,0
2017-07-14T01:20:22.336Z,0
2017-07-14T01:21:32.619Z,0
2017-07-14T01:22:42.251Z,0
2017-07-14T01:23:52.434Z,0
2017-07-14T01:25:02.690Z,0
2017-07-14T01:26:12.956Z,0
2017-07-14T01:27:23.235Z,0
2017-07-14T01:28:33.493Z,0
2017-07-14T01:29:44.009Z,0
2017-07-14T01:30:53.332Z,0
2017-07-14T01:32:03.608Z,0
2017-07-14T01:33:13.862Z,0
2017-07-14T01:34:23.807Z,0
2017-07-14T01:35:34.314Z,0
2017-07-14T01:36:44.586Z,0
2017-07-14T01:37:54.524Z,0
2017-07-14T01:39:04.780Z,0
2017-07-14T01:40:15.041Z,0
2017-07-14T01:41:25.662Z,0
2017-07-14T01:42:35.948Z,0
2017-07-14T01:43:45.906Z,0
2017-07-14T01:44:55.857Z,0
2017-07-14T01:46:06.326Z,0
2017-07-14T01:47:16.838Z,0
2017-07-14T01:48:27.103Z,0
2017-07-14T01:49:37.366Z,0
2017-07-14T01:50:47.667Z,0
2017-07-14T01:51:57.941Z,0
2017-07-14T01:53:08.163Z,0
2017-07-14T01:54:18.432Z,0
2017-07-14T01:55:28.698Z,0
2017-07-14T01:56:38.970Z,0
2017-07-14T01:57:49.236Z,0
2017-07-14T01:58:59.759Z,0
2017-07-14T02:00:10.031Z,0
2017-07-14T02:01:20.293Z,0
2017-07-14T02:02:29.932Z,0
2017-07-14T02:03:40.223Z,0
2017-07-14T02:04:50.784Z,0
2017-07-14T02:06:01.043Z,0
2017-07-14T02:07:11.318Z,0
2017-07-14T02:08:21.584Z,0
2017-07-14T02:09:31.539Z,0
2017-07-14T02:10:42.052Z,0
2017-07-14T02:11:52.012Z,0
2017-07-14T02:13:02.282Z,0
2017-07-14T02:14:12.231Z,0
2017-07-14T02:15:22.162Z,0
2017-07-14T02:16:32.696Z,0
2017-07-14T02:17:42.653Z,0
2017-07-14T02:18:52.922Z,0
2017-07-14T02:20:03.183Z,0
2017-07-14T02:21:13.133Z,0
2017-07-14T02:22:23.692Z,0
2017-07-14T02:23:33.325Z,0
2017-07-14T02:24:43.595Z,0
2017-07-14T02:25:53.876Z,0
2017-07-14T02:27:04.164Z,0
2017-07-14T02:28:14.692Z,0
2017-07-14T02:29:24.957Z,0
2017-07-14T02:30:35.207Z,0
2017-07-14T02:31:45.467Z,0
2017-07-14T02:32:55.743Z,0
2017-07-14T02:34:06.264Z,0
2017-07-14T02:35:16.543Z,0
2017-07-14T02:36:26.807Z,0
2017-07-14T02:37:36.771Z,0
2017-07-14T02:38:46.742Z,0
2017-07-14T02:39:56.939Z,0
2017-07-14T02:41:07.213Z,0
2017-07-14T02:42:17.477Z,0
2017-07-14T02:43:27.432Z,0
2017-07-14T02:44:37.691Z,0
2017-07-14T02:45:48.217Z,0
2017-07-14T02:46:58.495Z,0
2017-07-14T02:48:08.749Z,0
2017-07-14T02:49:19.037Z,5
2017-07-14T02:50:28.997Z,5
2017-07-14T02:51:39.528Z,5
2017-07-14T02:52:49.795Z,5
2017-07-14T02:53:59.743Z,5
2017-07-14T02:55:10.008Z,5
2017-07-14T02:56:20.273Z,5
2017-07-14T02:57:30.156Z,5
2017-07-14T02:58:40.439Z,5
2017-07-14T02:59:49.769Z,5
2017-07-14T03:00:59.721Z,10
2017-07-14T03:02:09.972Z,10
2017-07-14T03:03:19.843Z,10
2017-07-14T03:04:30.126Z,10
2017-07-14T03:05:40.078Z,10
2017-07-14T03:06:50.341Z,10
2017-07-14T03:08:00.613Z,15
2017-07-14T03:09:11.121Z,15
2017-07-14T03:10:21.093Z,15
2017-07-14T03:11:31.047Z,15
2017-07-14T03:12:40.982Z,15
2017-07-14T03:13:51.257Z,15
2017-07-14T03:15:01.455Z,15
2017-07-14T03:16:11.709Z,15
2017-07-14T03:17:21.974Z,15
2017-07-14T03:18:32.227Z,20
2017-07-14T03:19:42.486Z,20
2017-07-14T03:20:52.744Z,20
2017-07-14T03:22:02.704Z,20
2017-07-14T03:23:12.975Z,20
2017-07-14T03:24:23.235Z,20
2017-07-14T03:25:33.195Z,25
2017-07-14T03:26:43.699Z,25
2017-07-14T03:27:53.961Z,30
2017-07-14T03:29:03.601Z,30
2017-07-14T03:30:13.875Z,30
2017-07-14T03:31:24.152Z,35
2017-07-14T03:32:34.664Z,40
2017-07-14T03:33:44.914Z,40
2017-07-14T03:34:54.851Z,45
2017-07-14T03:36:04.820Z,50
2017-07-14T03:37:14.759Z,50
2017-07-14T03:38:25.258Z,55
2017-07-14T03:39:35.242Z,55
2017-07-14T03:40:45.512Z,60
2017-07-14T03:41:55.464Z,60
2017-07-14T03:43:05.742Z,65
2017-07-14T03:44:16.298Z,65
2017-07-14T03:45:26.569Z,65
2017-07-14T03:46:36.832Z,70
2017-07-14T03:47:46.802Z,70
2017-07-14T03:48:56.758Z,75
2017-07-14T03:50:07.252Z,75
2017-07-14T03:51:17.211Z,80
2017-07-14T03:52:27.493Z,80
2017-07-14T03:53:37.748Z,85
2017-07-14T03:54:47.710Z,85
2017-07-14T03:55:58.231Z,85
2017-07-14T03:57:08.169Z,85
2017-07-14T03:58:18.458Z,90
2017-07-14T03:59:28.728Z,90
2017-07-14T04:00:39.009Z,95
2017-07-14T04:01:49.229Z,100
2017-07-14T04:02:59.190Z,105
2017-07-14T04:04:09.457Z,110
2017-07-14T04:05:19.762Z,110
2017-07-14T04:06:29.711Z,110
2017-07-14T04:07:39.592Z,110
2017-07-14T04:08:49.874Z,115
2017-07-14T04:10:00.152Z,120
2017-07-14T04:11:09.773Z,125
2017-07-14T04:12:20.039Z,130
2017-07-14T04:13:30.574Z,140
2017-07-14T04:14:40.826Z,150
2017-07-14T04:15:50.771Z,155
2017-07-14T04:17:00.708Z,165
2017-07-14T04:18:10.980Z,180
2017-07-14T04:19:21.491Z,190
2017-07-14T04:20:31.758Z,200
2017-07-14T04:21:42.019Z,205
2017-07-14T04:22:51.956Z,210
2017-07-14T04:24:01.919Z,220
2017-07-14T04:25:12.464Z,225
2017-07-14T04:26:22.739Z,230
2017-07-14T04:27:33.009Z,235
2017-07-14T04:28:42.963Z,240
2017-07-14T04:29:53.236Z,245
2017-07-14T04:31:03.765Z,250
2017-07-14T04:32:14.039Z,250
2017-07-14T04:33:24.327Z,255
2017-07-14T04:34:34.261Z,255
2017-07-14T04:35:44.232Z,260
2017-07-14T04:36:54.802Z,260
2017-07-14T04:38:05.055Z,265
2017-07-14T04:39:15.320Z,270
2017-07-14T04:40:25.260Z,275
2017-07-14T04:41:35.200Z,275
2017-07-14T04:42:45.717Z,275
2017-07-14T04:43:55.991Z,270
2017-07-14T04:45:05.951Z,265
2017-07-14T04:46:16.230Z,265
2017-07-14T04:47:26.505Z,260
2017-07-14T04:48:37.036Z,260
2017-07-14T04:49:47.000Z,265
2017-07-14T04:50:57.291Z,265
2017-07-14T04:52:07.557Z,270
2017-07-14T04:53:17.514Z,265
2017-07-14T04:54:28.037Z,265
2017-07-14T04:55:38.297Z,265
2017-07-14T04:56:48.563Z,260
2017-07-14T04:57:58.817Z,260
2017-07-14T04:59:08.787Z,255
2017-07-14T05:00:19.003Z,255
2017-07-14T05:01:29.270Z,255
2017-07-14T05:02:39.542Z,260
2017-07-14T05:03:49.799Z,255
2017-07-14T05:04:59.761Z,250
2017-07-14T05:06:10.325Z,255
2017-07-14T05:07:20.595Z,255
2017-07-14T05:08:30.550Z,255
2017-07-14T05:09:40.541Z,250
2017-07-14T05:10:50.505Z,250
2017-07-14T05:12:01.049Z,245
2017-07-14T05:13:11.321Z,245
2017-07-14T05:14:21.606Z,250
2017-07-14T05:15:31.574Z,255
2017-07-14T05:16:41.525Z,255
2017-07-14T05:17:52.099Z,265
2017-07-14T05:19:02.060Z,270
2017-07-14T05:20:12.332Z,280
2017-07-14T05:21:22.605Z,285
2017-07-14T05:22:32.863Z,290
2017-07-14T05:23:43.048Z,295
2017-07-14T05:24:53.307Z,300
2017-07-14T05:26:03.787Z,305
2017-07-14T05:27:13.425Z,310
2017-07-14T05:28:23.408Z,315
2017-07-14T05:29:33.943Z,315
2017-07-14T05:30:44.207Z,320
2017-07-14T05:31:54.716Z,325
2017-07-14T05:33:04.981Z,330
2017-07-14T05:34:14.936Z,345
2017-07-14T05:35:25.456Z,355
2017-07-14T05:36:35.745Z,360
2017-07-14T05:37:45.705Z,365
2017-07-14T05:38:55.649Z,375
2017-07-14T05:40:05.580Z,380
2017-07-14T05:41:16.110Z,385
2017-07-14T05:42:26.070Z,390
2017-07-14T05:43:36.374Z,395
2017-07-14T05:44:46.343Z,400
2017-07-14T05:45:56.607Z,405
2017-07-14T05:47:06.848Z,410
2017-07-14T05:48:17.139Z,410
2017-07-14T05:49:27.098Z,405
2017-07-14T05:50:37.404Z,395
2017-07-14T05:51:47.979Z,390
2017-07-14T05:52:58.534Z,390
2017-07-14T05:54:08.813Z,400
2017-07-14T05:55:19.108Z,400
2017-07-14T05:56:29.449Z,410
2017-07-14T05:57:39.437Z,425
2017-07-14T05:58:49.641Z,435
2017-07-14T05:59:59.627Z,440
2017-07-14T06:01:09.920Z,450
2017-07-14T06:02:20.223Z,455
2017-07-14T06:03:30.516Z,455
2017-07-14T06:04:40.149Z,455
2017-07-14T06:05:50.423Z,455
2017-07-14T06:07:00.707Z,450
2017-07-14T06:08:10.983Z,450
2017-07-14T06:09:21.240Z,450
2017-07-14T06:10:31.452Z,440
2017-07-14T06:11:41.088Z,440
2017-07-14T06:12:51.400Z,440
2017-07-14T06:14:01.679Z,430
2017-07-14T06:15:11.978Z,425
2017-07-14T06:16:22.528Z,420
2017-07-14T06:17:32.816Z,420
2017-07-14T06:18:43.086Z,420
2017-07-14T06:19:53.361Z,420
2017-07-14T06:21:03.652Z,430
2017-07-14T06:22:14.163Z,430
2017-07-14T06:23:24.421Z,430
2017-07-14T06:24:34.685Z,425
2017-07-14T06:25:44.965Z,420
2017-07-14T06:26:54.926Z,405
2017-07-14T06:28:05.460Z,400
2017-07-14T06:29:15.734Z,395
2017-07-14T06:30:26.017Z,400
2017-07-14T06:31:36.291Z,410
2017-07-14T06:32:46.566Z,420
2017-07-14T06:33:56.813Z,410
2017-07-14T06:35:07.093Z,405
2017-07-14T06:36:17.365Z,400
2017-07-14T06:37:27.324Z,390
2017-07-14T06:38:37.611Z,385
2017-07-14T06:39:47.806Z,385
2017-07-14T06:40:58.097Z,385
2017-07-14T06:42:08.355Z,390
2017-07-14T06:43:18.308Z,395
2017-07-14T06:44:27.945Z,405
2017-07-14T06:45:38.928Z,430
2017-07-14T06:46:49.262Z,445
2017-07-14T06:47:59.538Z,445
2017-07-14T06:49:09.179Z,450
2017-07-14T06:50:19.456Z,465
2017-07-14T06:51:30.024Z,495
2017-07-14T06:52:39.977Z,535
2017-07-14T06:53:50.245Z,570
2017-07-14T06:55:00.498Z,590
2017-07-14T06:56:10.801Z,580
2017-07-14T06:57:21.347Z,580
2017-07-14T06:58:31.625Z,565
2017-07-14T06:59:41.590Z,545
2017-07-14T07:00:51.856Z,545
2017-07-14T07:02:01.800Z,540
2017-07-14T07:03:12.011Z,530
2017-07-14T07:04:22.285Z,510
2017-07-14T07:05:32.576Z,495
2017-07-14T07:06:42.545Z,490
2017-07-14T07:07:52.502Z,480
2017-07-14T07:09:02.707Z,485
2017-07-14T07:10:12.970Z,485
2017-07-14T07:11:23.281Z,485
2017-07-14T07:12:33.558Z,490
2017-07-14T07:13:43.823Z,500
2017-07-14T07:14:54.408Z,510
2017-07-14T07:16:04.388Z,530
2017-07-14T07:17:14.656Z,545
2017-07-14T07:18:25.189Z,545
2017-07-14T07:19:35.199Z,540
2017-07-14T07:20:45.412Z,520
2017-07-14T07:21:55.693Z,505
2017-07-14T07:23:05.650Z,490
2017-07-14T07:24:15.281Z,495
2017-07-14T07:25:25.576Z,505
2017-07-14T07:26:35.819Z,515
2017-07-14T07:27:45.793Z,520
2017-07-14T07:28:56.068Z,525
2017-07-14T07:30:06.330Z,535
2017-07-14T07:31:16.628Z,530
2017-07-14T07:32:26.833Z,530
2017-07-14T07:33:36.796Z,540
2017-07-14T07:34:47.078Z,550
2017-07-14T07:35:57.357Z,550
2017-07-14T07:37:07.635Z,550
2017-07-14T07:38:18.174Z,555
2017-07-14T07:39:28.133Z,560
2017-07-14T07:40:38.412Z,565
2017-07-14T07:41:48.712Z,575
2017-07-14T07:42:58.682Z,585
2017-07-14T07:44:09.240Z,595
2017-07-14T07:45:19.517Z,590
2017-07-14T07:46:29.838Z,580
2017-07-14T07:47:40.139Z,575
2017-07-14T07:48:50.441Z,570
2017-07-14T07:50:00.028Z,565
2017-07-14T07:51:10.302Z,565
2017-07-14T07:52:20.580Z,565
2017-07-14T07:53:30.574Z,555
2017-07-14T07:54:40.860Z,550
2017-07-14T07:55:51.404Z,550
2017-07-14T07:57:01.377Z,555
2017-07-14T07:58:11.695Z,565
2017-07-14T07:59:21.904Z,565
2017-07-14T08:00:32.199Z,550
2017-07-14T08:01:42.411Z,560
2017-07-14T08:02:52.693Z,575
2017-07-14T08:04:02.958Z,585
2017-07-14T08:05:12.601Z,595
2017-07-14T08:06:22.880Z,590
2017-07-14T08:07:33.457Z,585
2017-07-14T08:08:43.404Z,585
2017-07-14T08:09:53.672Z,590
2017-07-14T08:11:03.953Z,610
2017-07-14T08:12:14.228Z,615
2017-07-14T08:13:24.754Z,625
2017-07-14T08:14:35.048Z,645
2017-07-14T08:15:45.328Z,665
2017-07-14T08:16:55.614Z,680
2017-07-14T08:18:05.905Z,685
2017-07-14T08:19:16.123Z,685
2017-07-14T08:20:26.106Z,685
2017-07-14T08:21:36.377Z,695
2017-07-14T08:22:46.668Z,725
2017-07-14T08:23:56.324Z,730
2017-07-14T08:25:06.871Z,730
2017-07-14T08:26:17.152Z,695
2017-07-14T08:27:27.454Z,660
2017-07-14T08:28:37.749Z,670
2017-07-14T08:29:47.493Z,690
2017-07-14T08:30:58.036Z,700
2017-07-14T08:32:08.326Z,735
2017-07-14T08:33:18.853Z,755
2017-07-14T08:34:29.146Z,790
2017-07-14T08:35:39.424Z,750
2017-07-14T08:36:49.975Z,745
2017-07-14T08:37:59.935Z,705
2017-07-14T08:39:10.230Z,665
2017-07-14T08:40:20.201Z,665
2017-07-14T08:41:30.482Z,760
2017-07-14T08:42:41.022Z,950
2017-07-14T08:43:50.999Z,1005
2017-07-14T08:45:00.971Z,1015
2017-07-14T08:46:10.993Z,1100
2017-07-14T08:47:21.284Z,1280
2017-07-14T08:48:31.817Z,1690
2017-07-14T08:49:42.092Z,1290
2017-07-14T08:50:52.356Z,1285
2017-07-14T08:52:02.335Z,1495
2017-07-14T08:53:12.312Z,1665
2017-07-14T08:54:22.881Z,1735
2017-07-14T08:55:33.196Z,1740
2017-07-14T08:56:43.160Z,1755
2017-07-14T08:57:53.468Z,1835
2017-07-14T08:59:03.151Z,1990
2017-07-14T09:00:13.694Z,1845
2017-07-14T09:01:23.983Z,2035
2017-07-14T09:02:33.955Z,1990
2017-07-14T09:03:43.917Z,1470
2017-07-14T09:04:54.213Z,1570
2017-07-14T09:06:04.764Z,1350
2017-07-14T09:07:15.046Z,1580
2017-07-14T09:08:25.039Z,1715
2017-07-14T09:09:35.020Z,2105
2017-07-14T09:10:44.970Z,1625
2017-07-14T09:11:54.887Z,2065
2017-07-14T09:13:05.153Z,1690
2017-07-14T09:14:15.154Z,1715
2017-07-14T09:15:25.445Z,1775
2017-07-14T09:16:35.734Z,1975
2017-07-14T09:17:45.949Z,1700
2017-07-14T09:18:56.262Z,1570
2017-07-14T09:20:06.262Z,1950
2017-07-14T09:21:16.220Z,1870
2017-07-14T09:22:26.491Z,2090
2017-07-14T09:23:37.062Z,2265
2017-07-14T09:24:47.029Z,2390
2017-07-14T09:25:57.332Z,2265
2017-07-14T09:27:07.311Z,985
2017-07-14T09:28:17.270Z,980
2017-07-14T09:29:27.800Z,1015
2017-07-14T09:30:37.455Z,1070
2017-07-14T09:31:47.752Z,1125
2017-07-14T09:32:58.040Z,1175
2017-07-14T09:34:08.311Z,1220
2017-07-14T09:35:18.531Z,1920
2017-07-14T09:36:28.206Z,1525
2017-07-14T09:37:38.490Z,1375
2017-07-14T09:38:48.782Z,1585
2017-07-14T09:39:59.073Z,1620
2017-07-14T09:41:09.630Z,2250
2017-07-14T09:42:19.916Z,1215
2017-07-14T09:43:29.894Z,1135
2017-07-14T09:44:40.178Z,1090
2017-07-14T09:45:50.460Z,1040
2017-07-14T09:47:00.681Z,975
2017-07-14T09:48:10.966Z,945
2017-07-14T09:49:20.937Z,925
2017-07-14T09:50:31.210Z,905
2017-07-14T09:51:41.500Z,845
2017-07-14T09:52:51.707Z,785
2017-07-14T09:54:02.054Z,775
2017-07-14T09:55:12.342Z,715
2017-07-14T09:56:22.659Z,675
2017-07-14T09:57:32.935Z,640
2017-07-14T09:58:43.159Z,595
2017-07-14T09:59:53.153Z,570
2017-07-14T10:01:03.459Z,555
2017-07-14T10:02:13.740Z,560
2017-07-14T10:03:24.027Z,580
2017-07-14T10:04:34.569Z,605
2017-07-14T10:05:44.852Z,630
2017-07-14T10:06:55.150Z,650
2017-07-14T10:08:05.431Z,635
2017-07-14T10:09:15.717Z,605
2017-07-14T10:10:26.258Z,575
2017-07-14T10:11:36.233Z,550
2017-07-14T10:12:46.193Z,605
2017-07-14T10:13:56.138Z,590
2017-07-14T10:15:06.442Z,515
2017-07-14T10:16:16.998Z,505
2017-07-14T10:17:27.281Z,510
2017-07-14T10:18:37.539Z,515
2017-07-14T10:19:47.823Z,530
2017-07-14T10:20:58.117Z,535
2017-07-14T10:22:08.658Z,550
2017-07-14T10:23:18.622Z,580
2017-07-14T10:24:28.597Z,600
2017-07-14T10:25:38.553Z,635
2017-07-14T10:26:48.822Z,665
2017-07-14T10:27:59.422Z,710
2017-07-14T10:29:09.693Z,750
2017-07-14T10:30:19.989Z,795
2017-07-14T10:31:30.288Z,845
2017-07-14T10:32:40.559Z,900
2017-07-14T10:33:51.070Z,950
2017-07-14T10:35:01.343Z,995
2017-07-14T10:36:11.310Z,1025
2017-07-14T10:37:21.616Z,1060
2017-07-14T10:38:31.906Z,1090
2017-07-14T10:39:41.826Z,1125
2017-07-14T10:40:51.784Z,1165
2017-07-14T10:42:02.070Z,1220
2017-07-14T10:43:11.705Z,1300
2017-07-14T10:44:21.670Z,1405
2017-07-14T10:45:32.288Z,1485
2017-07-14T10:46:42.261Z,1565
2017-07-14T10:47:52.264Z,1450
2017-07-14T10:49:02.212Z,1790
2017-07-14T10:50:12.495Z,1825
2017-07-14T10:51:23.016Z,1620
2017-07-14T10:52:33.310Z,1570
2017-07-14T10:53:43.587Z,1450
2017-07-14T10:54:53.704Z,1350
2017-07-14T10:56:03.999Z,1335
2017-07-14T10:57:14.215Z,1340
2017-07-14T10:58:24.164Z,1295
2017-07-14T10:59:34.458Z,1280
2017-07-14T11:00:44.466Z,1290
2017-07-14T11:01:54.746Z,1325
2017-07-14T11:03:05.304Z,1485
2017-07-14T11:04:15.588Z,1605
2017-07-14T11:05:25.228Z,1875
2017-07-14T11:06:35.517Z,2345
2017-07-14T11:07:45.808Z,2515
2017-07-14T11:08:56.023Z,2735
2017-07-14T11:10:06.300Z,3085
2017-07-14T11:11:16.596Z,1975
2017-07-14T11:12:26.865Z,1590
2017-07-14T11:13:36.834Z,1885
2017-07-14T11:14:46.420Z,1480
2017-07-14T11:15:56.398Z,2425
2017-07-14T11:17:06.710Z,2075
2017-07-14T11:18:17.006Z,3420
2017-07-14T11:19:26.650Z,3585
2017-07-14T11:20:37.258Z,3230
2017-07-14T11:21:47.527Z,3345
2017-07-14T11:22:57.792Z,1665
2017-07-14T11:24:08.064Z,2740
2017-07-14T11:25:18.353Z,2935
2017-07-14T11:26:28.902Z,2825
2017-07-14T11:27:39.211Z,2925
2017-07-14T11:28:49.544Z,2615
2017-07-14T11:29:59.873Z,1375
2017-07-14T11:31:10.162Z,3520
2017-07-14T11:32:20.744Z,2850
2017-07-14T11:33:30.737Z,1195
2017-07-14T11:34:40.737Z,1160
2017-07-14T11:35:51.037Z,1645
2017-07-14T11:37:01.034Z,3160
2017-07-14T11:38:11.593Z,3235
2017-07-14T11:39:21.567Z,1765
2017-07-14T11:40:31.532Z,3205
2017-07-14T11:41:41.499Z,3135
2017-07-14T11:42:51.786Z,3395
2017-07-14T11:44:02.319Z,3095
2017-07-14T11:45:12.602Z,3435
2017-07-14T11:46:22.892Z,3425
2017-07-14T11:47:33.194Z,3535
2017-07-14T11:48:43.154Z,1695
2017-07-14T11:49:53.697Z,3020
2017-07-14T11:51:04.009Z,3005
2017-07-14T11:52:14.011Z,1285
2017-07-14T11:53:24.302Z,1395
2017-07-14T11:54:34.276Z,1685
2017-07-14T11:55:44.829Z,3285
2017-07-14T11:56:55.104Z,3280
2017-07-14T11:58:05.086Z,3225
2017-07-14T11:59:15.368Z,1620
2017-07-14T12:00:25.325Z,1175
2017-07-14T12:01:35.556Z,1125
2017-07-14T12:02:45.515Z,1165
2017-07-14T12:03:55.481Z,1235
2017-07-14T12:05:05.770Z,1270
2017-07-14T12:06:16.036Z,1645
2017-07-14T12:07:26.730Z,1265
2017-07-14T12:08:37.018Z,1260
2017-07-14T12:09:47.290Z,1225
2017-07-14T12:10:56.937Z,1175
2017-07-14T12:12:06.924Z,1200
2017-07-14T12:13:17.129Z,1205
2017-07-14T12:14:27.389Z,1990
2017-07-14T12:15:37.683Z,1380
2017-07-14T12:16:47.031Z,1520
2017-07-14T12:17:57.320Z,2860
2017-07-14T12:19:07.211Z,1685
2017-07-14T12:20:17.161Z,1290
2017-07-14T12:21:26.815Z,1130
2017-07-14T12:22:36.763Z,1095
2017-07-14T12:23:47.030Z,1135
2017-07-14T12:24:57.244Z,1220
2017-07-14T12:26:07.194Z,1310
2017-07-14T12:27:17.476Z,2640
2017-07-14T12:28:27.759Z,3335
2017-07-14T12:29:37.728Z,3665
2017-07-14T12:30:47.942Z,3585
2017-07-14T12:31:57.915Z,3895
2017-07-14T12:33:08.206Z,2725
2017-07-14T12:34:18.507Z,1800
2017-07-14T12:35:28.812Z,2285
2017-07-14T12:36:38.705Z,2475
2017-07-14T12:37:48.672Z,1565
2017-07-14T12:38:58.949Z,1605
2017-07-14T12:40:08.914Z,1615
2017-07-14T12:41:18.924Z,1775
2017-07-14T12:42:29.472Z,2040
2017-07-14T12:43:39.760Z,1765
2017-07-14T12:44:49.733Z,1960
2017-07-14T12:45:59.700Z,2315
2017-07-14T12:47:09.991Z,3660
2017-07-14T12:48:20.582Z,2110
2017-07-14T12:49:30.880Z,3210
2017-07-14T12:59:13.333Z,3985
2017-07-14T13:00:23.344Z,3920
2017-07-14T13:01:33.292Z,3670
2017-07-14T13:02:43.575Z,3435
2017-07-14T13:03:53.544Z,1490
2017-07-14T13:05:03.117Z,2580
2017-07-14T13:06:13.411Z,1410
2017-07-14T13:07:23.734Z,2215
2017-07-14T13:08:34.014Z,1275
2017-07-14T13:09:44.289Z,2140
2017-07-14T13:10:54.824Z,1275
2017-07-14T13:12:04.810Z,1325
2017-07-14T13:13:14.797Z,1490
2017-07-14T13:14:25.050Z,3860
2017-07-14T13:15:34.708Z,3695
2017-07-14T13:16:45.262Z,3720
2017-07-14T13:17:55.542Z,3770
2017-07-14T13:19:05.822Z,3820
2017-07-14T13:20:16.089Z,3630
2017-07-14T13:21:26.080Z,2990
2017-07-14T13:22:36.853Z,3540
2017-07-14T13:23:47.164Z,3600
2017-07-14T13:24:57.148Z,3395
2017-07-14T13:26:07.425Z,3505
2017-07-14T13:27:17.714Z,1530
2017-07-14T13:28:28.256Z,1435
2017-07-14T13:29:38.538Z,1080
2017-07-14T13:30:48.808Z,1010
2017-07-14T13:31:58.777Z,1050
2017-07-14T13:33:09.070Z,1555
2017-07-14T13:34:19.298Z,1235
2017-07-14T13:35:29.579Z,1190
2017-07-14T13:36:39.560Z,1165
2017-07-14T13:37:49.857Z,1530
2017-07-14T13:38:59.849Z,2030
2017-07-14T13:40:10.389Z,1350
2017-07-14T13:41:20.342Z,1340
2017-07-14T13:42:30.637Z,1380
2017-07-14T13:43:40.902Z,3725
2017-07-14T13:44:50.879Z,1925
2017-07-14T13:46:01.091Z,3895
2017-07-14T13:47:11.383Z,2085
2017-07-14T13:48:21.668Z,1295
2017-07-14T13:49:31.319Z,1215
2017-07-14T13:50:41.299Z,1225
2017-07-14T13:51:51.859Z,1270
2017-07-14T13:53:01.813Z,1200
2017-07-14T13:54:12.092Z,1145
2017-07-14T13:55:22.358Z,1140
2017-07-14T13:56:32.644Z,1165
2017-07-14T13:57:42.887Z,1210
2017-07-14T13:58:53.152Z,1230
2017-07-14T14:00:03.117Z,1275
2017-07-14T14:01:13.387Z,1335
2017-07-14T14:02:23.072Z,1390
2017-07-14T14:03:33.306Z,1500
2017-07-14T14:04:43.579Z,1635
2017-07-14T14:05:53.254Z,3870
2017-07-14T14:07:03.522Z,3820
2017-07-14T14:08:13.481Z,3825
2017-07-14T14:09:23.386Z,3180
2017-07-14T14:10:33.731Z,3540
2017-07-14T14:11:44.022Z,3475
2017-07-14T14:12:53.983Z,3385
2017-07-14T14:14:03.652Z,3340
2017-07-14T14:15:14.215Z,3245
2017-07-14T14:16:24.165Z,3190
2017-07-14T14:17:34.470Z,3155
2017-07-14T14:18:44.747Z,3220
2017-07-14T14:19:54.734Z,3250
2017-07-14T14:21:05.276Z,1460
2017-07-14T14:22:15.561Z,3135
2017-07-14T14:23:25.536Z,3105
2017-07-14T14:24:35.819Z,3300
2017-07-14T14:25:45.798Z,3340
2017-07-14T14:26:56.005Z,3245
2017-07-14T14:28:06.286Z,3235
2017-07-14T14:29:15.955Z,2900
2017-07-14T14:30:26.265Z,3165
2017-07-14T14:31:36.221Z,3175
2017-07-14T14:32:46.439Z,3110
2017-07-14T14:33:56.402Z,2970
2017-07-14T14:35:06.384Z,2965
2017-07-14T14:36:16.666Z,2855
2017-07-14T14:37:26.657Z,2935
2017-07-14T14:38:37.196Z,2875
2017-07-14T14:39:47.173Z,2940
2017-07-14T14:40:57.476Z,2870
2017-07-14T14:42:07.462Z,2815
2017-07-14T14:43:17.431Z,2950
2017-07-14T14:44:27.676Z,2885
2017-07-14T14:45:37.984Z,1020
2017-07-14T14:46:48.264Z,1070
2017-07-14T14:47:57.924Z,1030
2017-07-14T14:49:08.222Z,2740
2017-07-14T14:50:18.687Z,2635
2017-07-14T14:51:28.647Z,1295
2017-07-14T14:52:38.628Z,1150
2017-07-14T14:53:48.902Z,1130
2017-07-14T14:54:58.553Z,1835
2017-07-14T14:56:08.831Z,1070
2017-07-14T14:57:18.807Z,2790
2017-07-14T14:58:28.754Z,1090
2017-07-14T14:59:38.716Z,1125
2017-07-14T15:00:49.217Z,995
2017-07-14T15:01:59.757Z,1610
2017-07-14T15:03:10.063Z,2320
2017-07-14T15:04:20.363Z,1085
2017-07-14T15:05:30.336Z,1015
2017-07-14T15:06:40.618Z,995
2017-07-14T15:07:51.165Z,945
2017-07-14T15:09:01.457Z,910
2017-07-14T15:10:11.428Z,920
2017-07-14T15:11:21.715Z,945
2017-07-14T15:12:32.002Z,1045
2017-07-14T15:13:42.543Z,1110
2017-07-14T15:14:52.862Z,1105
2017-07-14T15:16:02.510Z,1075
2017-07-14T15:17:12.779Z,1050
2017-07-14T15:18:23.058Z,1010
2017-07-14T15:19:33.581Z,985
2017-07-14T15:20:43.547Z,975
2017-07-14T15:21:53.509Z,1025
2017-07-14T15:23:03.773Z,1070
2017-07-14T15:24:13.739Z,1110
2017-07-14T15:25:23.956Z,1095
2017-07-14T15:26:34.261Z,1960
2017-07-14T15:27:44.534Z,2400
2017-07-14T15:28:54.803Z,2385
2017-07-14T15:30:04.773Z,2370
2017-07-14T15:31:15.309Z,2360
2017-07-14T15:32:24.965Z,2315
2017-07-14T15:33:34.931Z,2395
2017-07-14T15:34:44.901Z,2470
2017-07-14T15:35:55.203Z,2470
2017-07-14T15:37:05.445Z,2485
2017-07-14T15:38:15.405Z,2475
2017-07-14T15:39:25.708Z,2370
2017-07-14T15:40:35.983Z,2270
2017-07-14T15:41:46.259Z,2235
2017-07-14T15:42:56.466Z,2260
2017-07-14T15:44:06.432Z,2255
2017-07-14T15:45:16.725Z,2270
2017-07-14T15:46:27.024Z,2325
2017-07-14T15:47:36.990Z,2480
2017-07-14T15:48:46.625Z,2200
2017-07-14T15:49:56.913Z,965
2017-07-14T15:51:07.195Z,980
2017-07-14T15:52:17.172Z,1115
2017-07-14T15:53:27.466Z,1975
2017-07-14T15:54:37.690Z,2005
2017-07-14T15:55:47.979Z,2345
2017-07-14T15:56:58.287Z,2300
2017-07-14T15:58:08.565Z,2350
2017-07-14T15:59:18.884Z,2310
2017-07-14T16:00:29.418Z,1750
2017-07-14T16:01:39.376Z,1005
2017-07-14T16:02:49.668Z,985
2017-07-14T16:03:59.948Z,1085
2017-07-14T16:05:10.233Z,1940
2017-07-14T16:06:20.452Z,2080
2017-07-14T16:07:30.752Z,2205
2017-07-14T16:08:41.044Z,2325
2017-07-14T16:09:51.022Z,2050
2017-07-14T16:11:00.675Z,2105
2017-07-14T16:12:11.224Z,2105
2017-07-14T16:13:21.187Z,2110
2017-07-14T16:14:31.458Z,2060
2017-07-14T16:15:41.738Z,1900
2017-07-14T16:16:51.400Z,1915